createdAt,value
2023-04-14T00:00:02.927Z,32.03
2023-04-14T00:02:42.045Z,32.18
2023-04-14T00:05:10.489Z,32.47
2023-04-14T00:07:38.756Z,32.42
2023-04-14T00:10:07.380Z,33.08
2023-04-14T00:12:35.759Z,32.90
2023-04-14T00:15:03.917Z,32.50
2023-04-14T00:17:32.411Z,32.35
2023-04-14T00:20:02.025Z,33.15
2023-04-14T00:22:31.482Z,32.93
2023-04-14T00:24:59.531Z,33.07
2023-04-14T00:27:27.620Z,33.28
2023-04-14T00:29:55.773Z,32.84
2023-04-14T00:32:23.888Z,32.65
2023-04-14T00:34:51.974Z,33.66
2023-04-14T00:37:21.414Z,33.76
2023-04-14T00:39:49.433Z,33.66
2023-04-14T00:42:17.454Z,33.19
2023-04-14T00:44:47.461Z,33.79
2023-04-14T00:47:16.460Z,33.72
2023-04-14T00:49:45.018Z,33.75
2023-04-14T00:52:13.435Z,33.65
2023-04-14T00:54:43.547Z,33.82
2023-04-14T00:57:12.008Z,33.68
2023-04-14T00:59:40.557Z,33.76
2023-04-14T01:02:08.751Z,34.11
2023-04-14T01:04:52.060Z,34.08
2023-04-14T01:07:21.870Z,34.16
2023-04-14T01:09:51.555Z,33.71
2023-04-14T01:12:26.906Z,34.29
2023-04-14T01:14:58.663Z,34.42
2023-04-14T01:17:29.495Z,34.68
2023-04-14T01:20:08.298Z,34.42
2023-04-14T01:22:37.995Z,34.92
2023-04-14T01:25:13.901Z,34.75
2023-04-14T01:27:45.294Z,34.46
2023-04-14T01:30:34.163Z,34.44
2023-04-14T01:33:05.703Z,34.63
2023-04-14T01:35:36.036Z,34.45
2023-04-14T01:38:06.046Z,34.60
2023-04-14T01:40:35.278Z,34.81
2023-04-14T01:43:05.822Z,34.78
2023-04-14T01:45:38.036Z,35.01
2023-04-14T01:48:08.392Z,34.65
2023-04-14T01:50:38.576Z,34.57
2023-04-14T01:53:08.344Z,35.11
2023-04-14T01:55:38.431Z,34.73
2023-04-14T01:58:08.093Z,34.53
2023-04-14T02:00:37.192Z,34.94
2023-04-14T02:03:06.382Z,35.13
2023-04-14T02:05:36.982Z,35.08
2023-04-14T02:08:07.739Z,35.09
2023-04-14T02:10:38.107Z,34.91
2023-04-14T02:13:07.453Z,35.06
2023-04-14T02:15:36.290Z,34.81
2023-04-14T02:18:06.152Z,34.88
2023-04-14T02:20:38.242Z,35.14
2023-04-14T02:23:06.323Z,35.06
2023-04-14T02:25:36.356Z,35.27
2023-04-14T02:28:06.684Z,35.08
2023-04-14T02:30:36.810Z,35.39
2023-04-14T02:33:06.824Z,35.85
2023-04-14T02:35:40.111Z,35.67
2023-04-14T02:38:11.753Z,35.67
2023-04-14T02:40:42.420Z,35.30
2023-04-14T02:43:13.863Z,35.77
2023-04-14T02:45:47.095Z,35.23
2023-04-14T02:48:16.012Z,35.27
2023-04-14T02:50:46.942Z,35.79
2023-04-14T02:53:19.878Z,35.26
2023-04-14T02:55:49.260Z,35.46
2023-04-14T02:58:19.476Z,35.99
2023-04-14T03:00:47.888Z,35.86
2023-04-14T03:03:17.483Z,35.75
2023-04-14T03:05:49.051Z,36.05
2023-04-14T03:08:18.099Z,36.09
2023-04-14T03:10:50.245Z,35.91
2023-04-14T03:13:24.449Z,35.94
2023-04-14T03:15:53.230Z,36.04
2023-04-14T03:18:22.482Z,35.86
2023-04-14T03:20:55.994Z,36.21
2023-04-14T03:23:26.658Z,35.28
2023-04-14T03:26:00.714Z,36.00
2023-04-14T03:28:32.682Z,36.02
2023-04-14T03:31:05.404Z,35.86
2023-04-14T03:33:43.637Z,35.93
2023-04-14T03:36:17.311Z,35.47
2023-04-14T03:38:47.015Z,35.58
2023-04-14T03:41:16.028Z,35.85
2023-04-14T03:43:46.894Z,35.52
2023-04-14T03:46:16.840Z,35.71
2023-04-14T03:48:47.624Z,35.59
2023-04-14T03:51:20.085Z,35.82
2023-04-14T03:53:49.278Z,35.42
2023-04-14T03:56:18.955Z,35.86
2023-04-14T03:58:49.481Z,36.05
2023-04-14T04:01:19.794Z,36.11
2023-04-14T04:03:49.903Z,35.55
2023-04-14T04:06:19.779Z,35.64
2023-04-14T04:08:49.146Z,35.82
2023-04-14T04:11:19.061Z,35.62
2023-04-14T04:13:49.830Z,36.10
2023-04-14T04:16:19.477Z,35.79
2023-04-14T04:18:49.518Z,35.72
2023-04-14T04:21:28.229Z,35.73
2023-04-14T04:23:58.433Z,35.75
2023-04-14T04:26:26.921Z,35.37
2023-04-14T04:28:57.212Z,35.05
2023-04-14T04:31:28.734Z,35.54
2023-04-14T04:33:58.343Z,35.48
2023-04-14T04:36:29.788Z,35.46
2023-04-14T04:38:58.812Z,35.80
2023-04-14T04:41:29.095Z,36.06
2023-04-14T04:44:00.441Z,35.89
2023-04-14T04:46:46.693Z,36.16
2023-04-14T04:49:16.765Z,35.56
2023-04-14T04:51:47.340Z,36.01
2023-04-14T04:54:17.421Z,36.07
2023-04-14T04:56:45.518Z,35.82
2023-04-14T04:59:13.612Z,35.61
2023-04-14T05:01:41.698Z,35.39
2023-04-14T05:04:09.902Z,35.54
2023-04-14T05:06:38.432Z,35.29
2023-04-14T05:09:08.046Z,35.09
2023-04-14T05:11:36.831Z,34.59
2023-04-14T05:14:05.330Z,34.39
2023-04-14T05:16:34.057Z,34.21
2023-04-14T05:19:03.006Z,34.14
2023-04-14T05:21:31.287Z,34.06
2023-04-14T05:24:00.651Z,34.18
2023-04-14T05:26:51.994Z,34.38
2023-04-14T05:29:18.514Z,34.17
2023-04-14T05:31:46.627Z,33.82
2023-04-14T05:34:15.244Z,33.32
2023-04-14T05:36:43.446Z,33.58
2023-04-14T05:39:11.840Z,33.71
2023-04-14T05:41:41.418Z,33.77
2023-04-14T05:44:09.436Z,33.04
2023-04-14T05:46:37.876Z,33.51
2023-04-14T05:49:06.084Z,34.18
2023-04-14T05:51:34.479Z,33.97
2023-04-14T05:54:02.759Z,32.81
2023-04-14T05:56:31.233Z,33.19
2023-04-14T05:59:00.971Z,33.00
2023-04-14T06:01:29.812Z,32.31
2023-04-14T06:03:58.199Z,31.46
2023-04-14T06:06:26.696Z,31.94
2023-04-14T06:08:54.866Z,32.21
2023-04-14T06:11:23.382Z,32.49
2023-04-14T06:13:51.787Z,32.63
2023-04-14T06:16:21.324Z,31.99
2023-04-14T06:18:49.520Z,32.36
2023-04-14T06:21:17.629Z,31.60
2023-04-14T06:23:45.889Z,31.18
2023-04-14T06:26:13.969Z,31.10
2023-04-14T06:28:43.807Z,31.40
2023-04-14T06:31:12.345Z,30.39
2023-04-14T06:33:41.920Z,30.02
2023-04-14T06:36:10.114Z,29.68
2023-04-14T06:38:38.248Z,29.67
2023-04-14T06:41:07.195Z,30.05
2023-04-14T06:43:35.320Z,30.39
2023-04-14T06:46:03.754Z,28.95
2023-04-14T06:48:31.870Z,29.02
2023-04-14T06:51:01.329Z,29.26
2023-04-14T06:53:29.457Z,28.93
2023-04-14T06:56:00.685Z,27.82
2023-04-14T06:58:29.606Z,27.76
2023-04-14T07:00:58.375Z,27.75
2023-04-14T07:03:27.022Z,27.69
2023-04-14T07:05:55.156Z,28.23
2023-04-14T07:08:24.634Z,26.65
2023-04-14T07:11:00.505Z,27.03
2023-04-14T07:13:28.727Z,27.48
2023-04-14T07:15:56.935Z,26.97
2023-04-14T07:18:25.103Z,26.04
2023-04-14T07:20:54.301Z,26.23
2023-04-14T07:23:22.807Z,26.42
2023-04-14T07:25:52.935Z,25.69
2023-04-14T07:28:21.513Z,26.09
2023-04-14T07:30:49.773Z,26.42
2023-04-14T07:33:19.320Z,25.77
2023-04-14T07:35:58.686Z,25.50
2023-04-14T07:38:30.583Z,25.32
2023-04-14T07:40:59.987Z,25.80
2023-04-14T07:43:28.136Z,25.69
2023-04-14T07:45:56.424Z,25.80
2023-04-14T07:48:24.564Z,25.16
2023-04-14T07:50:52.563Z,25.07
2023-04-14T07:53:20.574Z,25.13
2023-04-14T07:55:48.687Z,24.31
2023-04-14T07:58:18.070Z,24.93
2023-04-14T08:00:46.292Z,24.39
2023-04-14T08:03:14.922Z,24.32
2023-04-14T08:05:43.940Z,24.54
2023-04-14T08:08:12.445Z,23.86
2023-04-14T08:10:40.758Z,24.36
2023-04-14T08:13:08.920Z,23.82
2023-04-14T08:15:38.427Z,23.94
2023-04-14T08:18:06.842Z,24.23
2023-04-14T08:20:34.912Z,23.82
2023-04-14T08:23:03.210Z,24.12
2023-04-14T08:25:31.444Z,23.00
2023-04-14T08:27:59.487Z,22.72
2023-04-14T08:30:27.709Z,22.80
2023-04-14T08:32:59.107Z,22.87
2023-04-14T08:35:37.966Z,22.39
2023-04-14T08:38:09.608Z,21.85
2023-04-14T08:40:38.717Z,21.14
2023-04-14T08:43:06.798Z,20.84
2023-04-14T08:45:35.183Z,20.95
2023-04-14T08:48:05.775Z,19.09
2023-04-14T08:50:36.732Z,18.59
2023-04-14T08:53:07.559Z,17.86
2023-04-14T08:55:37.760Z,17.16
2023-04-14T08:58:07.804Z,16.50
2023-04-14T09:00:36.076Z,15.88
2023-04-14T09:03:05.983Z,15.70
2023-04-14T09:05:34.580Z,15.04
2023-04-14T09:08:03.867Z,14.66
2023-04-14T09:10:32.680Z,13.86
2023-04-14T09:13:01.535Z,13.43
2023-04-14T09:15:30.123Z,12.80
2023-04-14T09:17:58.706Z,12.77
2023-04-14T09:20:37.960Z,12.44
2023-04-14T09:23:09.013Z,12.17
2023-04-14T09:25:37.982Z,11.89
2023-04-14T09:28:06.158Z,12.12
2023-04-14T09:30:34.517Z,11.67
2023-04-14T09:33:05.612Z,11.73
2023-04-14T09:35:44.991Z,11.83
2023-04-14T09:38:13.160Z,11.21
2023-04-14T09:40:43.523Z,10.78
2023-04-14T09:43:23.949Z,11.03
2023-04-14T09:45:52.137Z,10.04
2023-04-14T09:48:20.891Z,10.45
2023-04-14T09:51:00.511Z,10.29
2023-04-14T09:53:29.837Z,10.42
2023-04-14T09:55:58.202Z,9.94
2023-04-14T09:58:29.970Z,10.33
2023-04-14T10:00:59.544Z,9.65
2023-04-14T10:03:34.741Z,10.49
2023-04-14T10:06:05.710Z,10.01
2023-04-14T10:08:38.124Z,10.03
2023-04-14T10:11:16.569Z,9.50
2023-04-14T10:13:44.839Z,8.92
2023-04-14T10:16:13.062Z,9.14
2023-04-14T10:18:41.331Z,9.02
2023-04-14T10:21:11.497Z,9.05
2023-04-14T10:23:41.334Z,8.35
2023-04-14T10:26:10.063Z,8.92
2023-04-14T10:28:39.368Z,8.46
2023-04-14T10:31:09.558Z,8.00
2023-04-14T10:33:38.078Z,7.97
2023-04-14T10:36:06.867Z,7.68
2023-04-14T10:38:40.956Z,7.81
2023-04-14T10:41:09.179Z,7.02
2023-04-14T10:43:38.183Z,6.93
2023-04-14T10:46:07.667Z,6.73
2023-04-14T10:48:36.495Z,6.73
2023-04-14T10:51:05.920Z,6.71
2023-04-14T10:53:45.987Z,6.39
2023-04-14T10:56:14.154Z,6.57
2023-04-14T10:58:42.357Z,6.79
2023-04-14T11:01:24.293Z,6.33
2023-04-14T11:03:53.144Z,6.00
2023-04-14T11:06:40.978Z,6.38
2023-04-14T11:09:24.097Z,6.36
2023-04-14T11:11:54.438Z,6.46
2023-04-14T11:14:27.163Z,6.74
2023-04-14T11:17:03.993Z,6.24
2023-04-14T11:19:33.374Z,6.18
2023-04-14T11:22:01.473Z,6.13
2023-04-14T11:24:29.692Z,6.11
2023-04-14T11:27:00.215Z,6.68
2023-04-14T11:29:28.258Z,6.66
2023-04-14T11:32:03.294Z,7.18
2023-04-14T11:34:31.535Z,7.08
2023-04-14T11:36:59.717Z,7.44
2023-04-14T11:39:28.979Z,7.34
2023-04-14T11:42:00.299Z,7.99
2023-04-14T11:44:30.500Z,8.31
2023-04-14T11:46:58.651Z,8.18
2023-04-14T11:49:36.240Z,8.96
2023-04-14T11:52:08.311Z,8.34
2023-04-14T11:54:37.534Z,8.98
2023-04-14T11:57:10.094Z,9.53
2023-04-14T11:59:43.956Z,9.69
2023-04-14T12:02:18.904Z,9.93
2023-04-14T12:04:49.371Z,9.80
2023-04-14T12:07:19.278Z,10.23
2023-04-14T12:09:49.076Z,10.58
2023-04-14T12:12:18.096Z,10.77
2023-04-14T12:14:49.377Z,11.24
2023-04-14T12:17:18.892Z,10.94
2023-04-14T12:19:47.148Z,11.02
2023-04-14T12:22:16.303Z,11.52
2023-04-14T12:24:45.184Z,11.65
2023-04-14T12:27:14.965Z,11.60
2023-04-14T12:29:45.267Z,11.94
2023-04-14T12:32:15.564Z,12.19
2023-04-14T12:34:54.084Z,12.19
2023-04-14T12:37:25.753Z,12.12
2023-04-14T12:39:57.793Z,12.28
2023-04-14T12:42:26.072Z,12.74
2023-04-14T12:44:58.296Z,12.09
2023-04-14T12:47:32.000Z,12.88
2023-04-14T12:50:00.574Z,13.32
2023-04-14T12:52:35.754Z,12.52
2023-04-14T12:55:05.071Z,12.08
2023-04-14T12:57:33.812Z,12.36
2023-04-14T13:00:02.300Z,12.45
2023-04-14T13:02:32.313Z,12.82
2023-04-14T13:05:00.592Z,12.57
2023-04-14T13:07:28.689Z,12.73
2023-04-14T13:09:56.886Z,12.46
2023-04-14T13:12:25.034Z,12.50
2023-04-14T13:14:54.132Z,13.18
2023-04-14T13:17:22.372Z,12.93
2023-04-14T13:19:52.042Z,13.02
2023-04-14T13:22:20.078Z,13.42
2023-04-14T13:24:48.225Z,14.08
2023-04-14T13:27:16.228Z,13.67
2023-04-14T13:29:44.376Z,13.69
2023-04-14T13:32:13.184Z,13.50
2023-04-14T13:34:41.455Z,13.53
2023-04-14T13:37:10.931Z,12.97
2023-04-14T13:39:39.050Z,12.37
2023-04-14T13:42:07.172Z,14.14
2023-04-14T13:44:35.782Z,14.01
2023-04-14T13:47:03.853Z,14.24
2023-04-14T13:49:31.974Z,13.85
2023-04-14T13:52:00.036Z,13.67
2023-04-14T13:54:29.544Z,14.06
2023-04-14T13:56:57.895Z,13.88
2023-04-14T13:59:25.965Z,14.44
2023-04-14T14:01:54.228Z,14.43
2023-04-14T14:04:22.643Z,14.53
2023-04-14T14:06:50.877Z,13.83
2023-04-14T14:09:18.953Z,14.25
2023-04-14T14:11:48.364Z,13.81
2023-04-14T14:14:16.464Z,13.84
2023-04-14T14:16:44.787Z,14.28
2023-04-14T14:19:16.963Z,14.35
2023-04-14T14:21:45.417Z,13.89
2023-04-14T14:24:14.240Z,14.19
2023-04-14T14:26:42.397Z,14.39
2023-04-14T14:29:11.998Z,13.93
2023-04-14T14:31:40.575Z,13.65
2023-04-14T14:34:10.276Z,14.44
2023-04-14T14:36:38.445Z,14.33
2023-04-14T14:39:06.515Z,14.05
2023-04-14T14:41:34.668Z,14.43
2023-04-14T14:44:03.137Z,15.14
2023-04-14T14:46:32.971Z,14.47
2023-04-14T14:49:01.397Z,14.57
2023-04-14T14:51:29.491Z,14.42
2023-04-14T14:54:08.829Z,14.81
2023-04-14T14:56:37.758Z,14.61
2023-04-14T14:59:05.926Z,15.15
2023-04-14T15:01:35.661Z,15.29
2023-04-14T15:04:05.295Z,14.76
2023-04-14T15:06:34.569Z,14.54
2023-04-14T15:09:03.526Z,14.70
2023-04-14T15:11:31.922Z,14.86
2023-04-14T15:14:00.287Z,15.21
2023-04-14T15:16:29.054Z,14.65
2023-04-14T15:18:58.915Z,14.21
2023-04-14T15:21:27.117Z,14.60
2023-04-14T15:23:55.196Z,14.60
2023-04-14T15:26:23.429Z,14.35
2023-04-14T15:28:51.578Z,14.43
2023-04-14T15:31:19.752Z,14.72
2023-04-14T15:33:47.826Z,15.45
2023-04-14T15:36:17.363Z,14.39
2023-04-14T15:38:47.133Z,15.04
2023-04-14T15:41:15.300Z,15.34
2023-04-14T15:43:43.648Z,14.97
2023-04-14T15:46:13.123Z,15.20
2023-04-14T15:48:41.472Z,14.65
2023-04-14T15:51:09.957Z,14.56
2023-04-14T15:53:39.422Z,14.81
2023-04-14T15:56:07.758Z,15.20
2023-04-14T15:58:35.922Z,15.01
2023-04-14T16:01:07.759Z,14.44
2023-04-14T16:03:36.981Z,14.89
2023-04-14T16:06:07.013Z,14.81
2023-04-14T16:08:35.211Z,14.75
2023-04-14T16:11:05.104Z,14.52
2023-04-14T16:13:33.274Z,15.30
2023-04-14T16:16:01.494Z,15.44
2023-04-14T16:18:29.665Z,14.65
2023-04-14T16:20:57.973Z,15.15
2023-04-14T16:23:26.082Z,14.95
2023-04-14T16:25:54.844Z,14.83
2023-04-14T16:28:25.013Z,14.41
2023-04-14T16:30:53.702Z,14.99
2023-04-14T16:33:21.892Z,15.46
2023-04-14T16:35:50.228Z,15.01
2023-04-14T16:38:18.556Z,15.42
2023-04-14T16:40:54.671Z,14.92
2023-04-14T16:43:24.777Z,14.91
2023-04-14T16:45:53.007Z,15.08
2023-04-14T16:48:21.145Z,14.61
2023-04-14T16:50:49.284Z,15.45
2023-04-14T16:53:17.324Z,15.25
2023-04-14T16:55:45.408Z,14.94
2023-04-14T16:58:13.613Z,15.40
2023-04-14T17:00:43.071Z,15.15
2023-04-14T17:03:11.280Z,15.41
2023-04-14T17:05:39.446Z,15.50
2023-04-14T17:08:07.589Z,15.43
2023-04-14T17:10:35.733Z,15.68
2023-04-14T17:13:04.102Z,16.07
2023-04-14T17:15:32.531Z,15.60
2023-04-14T17:18:02.169Z,15.97
2023-04-14T17:20:30.699Z,16.24
2023-04-14T17:22:59.281Z,16.42
2023-04-14T17:25:27.574Z,16.34
2023-04-14T17:27:55.726Z,15.97
2023-04-14T17:30:24.745Z,16.00
2023-04-14T17:32:52.885Z,16.01
2023-04-14T17:35:22.668Z,16.74
2023-04-14T17:37:50.802Z,16.25
2023-04-14T17:40:19.001Z,16.55
2023-04-14T17:42:47.131Z,16.36
2023-04-14T17:45:21.511Z,16.57
2023-04-14T17:47:50.005Z,16.52
2023-04-14T17:50:18.592Z,16.81
2023-04-14T17:52:48.111Z,16.46
2023-04-14T17:55:16.486Z,17.08
2023-04-14T17:57:45.441Z,17.08
2023-04-14T18:00:14.786Z,16.54
2023-04-14T18:02:43.147Z,16.84
2023-04-14T18:05:11.467Z,16.42
2023-04-14T18:07:39.634Z,16.24
2023-04-14T18:10:09.847Z,16.10
2023-04-14T18:12:37.999Z,16.38
2023-04-14T18:15:06.480Z,16.19
2023-04-14T18:17:36.613Z,16.78
2023-04-14T18:20:04.942Z,16.85
2023-04-14T18:22:33.060Z,17.15
2023-04-14T18:25:01.437Z,16.99
2023-04-14T18:30:02.141Z,17.21
2023-04-14T18:32:32.283Z,16.93
2023-04-14T18:35:00.524Z,17.06
2023-04-14T18:37:28.870Z,17.23
2023-04-14T18:39:57.205Z,17.25
2023-04-14T18:42:25.275Z,17.29
2023-04-14T18:44:54.840Z,17.50
2023-04-14T18:47:23.310Z,17.38
2023-04-14T18:49:51.648Z,16.85
2023-04-14T18:52:20.053Z,16.58
2023-04-14T18:54:48.318Z,17.06
2023-04-14T18:57:16.417Z,16.67
2023-04-14T18:59:44.429Z,16.80
2023-04-14T19:02:14.110Z,17.68
2023-04-14T19:04:42.485Z,17.32
2023-04-14T19:07:10.723Z,17.82
2023-04-14T19:09:38.765Z,17.68
2023-04-14T19:12:12.811Z,17.73
2023-04-14T19:14:50.238Z,17.41
2023-04-14T19:17:19.741Z,17.14
2023-04-14T19:19:47.934Z,17.77
2023-04-14T19:22:16.998Z,17.50
2023-04-14T19:24:45.089Z,18.09
2023-04-14T19:27:13.398Z,17.06
2023-04-14T19:29:41.468Z,17.48
2023-04-14T19:32:09.726Z,17.80
2023-04-14T19:34:39.212Z,17.90
2023-04-14T19:37:07.279Z,16.97
2023-04-14T19:39:35.732Z,17.63
2023-04-14T19:42:04.232Z,17.82
2023-04-14T19:44:32.525Z,18.12
2023-04-14T19:47:00.674Z,17.56
2023-04-14T19:49:29.505Z,16.92
2023-04-14T19:51:59.809Z,17.48
2023-04-14T19:54:27.916Z,17.26
2023-04-14T19:56:56.010Z,16.87
2023-04-14T19:59:24.212Z,17.89
2023-04-14T20:01:52.287Z,17.68
2023-04-14T20:04:20.852Z,17.63
2023-04-14T20:06:49.418Z,17.53
2023-04-14T20:09:18.826Z,17.56
2023-04-14T20:11:47.081Z,17.22
2023-04-14T20:14:15.129Z,18.18
2023-04-14T20:16:44.542Z,18.13
2023-04-14T20:19:12.836Z,17.55
2023-04-14T20:21:40.938Z,18.48
2023-04-14T20:24:08.967Z,17.81
2023-04-14T20:26:42.726Z,17.94
2023-04-14T20:29:11.814Z,18.18
2023-04-14T20:31:41.754Z,18.03
2023-04-14T20:34:10.438Z,18.49
2023-04-14T20:36:38.480Z,18.19
2023-04-14T20:39:07.225Z,18.18
2023-04-14T20:41:36.520Z,18.12
2023-04-14T20:44:06.429Z,18.46
2023-04-14T20:46:34.556Z,18.29
2023-04-14T20:49:03.116Z,18.34
2023-04-14T20:51:32.398Z,17.69
2023-04-14T20:54:01.348Z,17.82
2023-04-14T20:56:30.988Z,18.71
2023-04-14T20:58:59.868Z,18.63
2023-04-14T21:01:29.540Z,18.60
2023-04-14T21:03:57.740Z,18.23
2023-04-14T21:06:26.403Z,18.26
2023-04-14T21:08:54.622Z,18.48
2023-04-14T21:11:22.682Z,18.24
2023-04-14T21:15:28.763Z,18.31
2023-04-14T21:16:40.858Z,18.36
2023-04-14T21:19:09.486Z,18.13
2023-04-14T21:21:37.812Z,18.68
2023-04-14T21:24:06.285Z,18.79
2023-04-14T21:26:34.397Z,18.92
2023-04-14T21:29:02.794Z,18.45
2023-04-14T21:31:31.120Z,18.28
2023-04-14T21:34:00.630Z,18.32
2023-04-14T21:36:28.791Z,18.63
2023-04-14T21:38:57.312Z,18.22
2023-04-14T21:41:25.561Z,18.17
2023-04-14T21:43:53.654Z,18.54
2023-04-14T21:46:21.885Z,18.32
2023-04-14T21:48:50.003Z,18.63
2023-04-14T21:51:19.862Z,18.74
2023-04-14T21:53:48.007Z,18.76
2023-04-14T21:56:16.227Z,19.00
2023-04-14T21:58:45.854Z,18.80
2023-04-14T22:01:13.898Z,18.49
2023-04-14T22:03:42.187Z,18.50
2023-04-14T22:06:11.607Z,18.77
2023-04-14T22:08:41.641Z,19.18
2023-04-14T22:11:09.737Z,18.94
2023-04-14T22:13:38.096Z,18.94
2023-04-14T22:16:06.727Z,18.84
2023-04-14T22:18:35.959Z,19.25
2023-04-14T22:21:04.955Z,19.33
2023-04-14T22:23:33.113Z,19.46
2023-04-14T22:26:02.568Z,19.05
2023-04-14T22:28:30.676Z,19.14
2023-04-14T22:30:58.782Z,19.57
2023-04-14T22:33:27.511Z,19.24
2023-04-14T22:35:55.597Z,19.39
2023-04-14T22:38:23.658Z,19.39
2023-04-14T22:40:52.744Z,19.27
2023-04-14T22:43:22.466Z,19.04
2023-04-14T22:45:50.553Z,19.66
2023-04-14T22:48:18.741Z,19.70
2023-04-14T22:50:47.344Z,20.36
2023-04-14T22:53:15.830Z,19.54
2023-04-14T22:55:44.208Z,19.35
2023-04-14T22:58:16.734Z,19.60
2023-04-14T23:00:46.440Z,19.69
2023-04-14T23:03:15.630Z,19.76
2023-04-14T23:05:44.849Z,19.52
2023-04-14T23:08:12.993Z,20.01
2023-04-14T23:10:41.120Z,20.17
2023-04-14T23:13:09.560Z,20.09
2023-04-14T23:15:37.672Z,19.37
2023-04-14T23:18:07.509Z,19.14
2023-04-14T23:20:35.938Z,19.90
2023-04-14T23:23:04.814Z,19.95
2023-04-14T23:25:33.429Z,19.35
2023-04-14T23:28:01.651Z,19.79
2023-04-14T23:30:29.828Z,19.99
2023-04-14T23:32:58.041Z,19.56
2023-04-14T23:35:28.274Z,19.93
2023-04-14T23:37:56.990Z,20.47
2023-04-14T23:40:25.121Z,19.26
2023-04-14T23:42:56.115Z,19.10
2023-04-14T23:45:24.417Z,19.87
2023-04-14T23:47:53.910Z,20.06
2023-04-14T23:50:22.266Z,19.76
2023-04-14T23:52:52.229Z,20.10
2023-04-14T23:55:21.267Z,19.84
